sensor_id;sensor_type;location;lat;lon;timestamp;temperature;humidity
17529;DHT22;8882;53.192;8.184;2022-12-18T08:05:09;-6.00;99.90
17529;DHT22;8882;53.192;8.184;2022-12-18T08:07:35;-6.00;99.90
17529;DHT22;8882;53.192;8.184;2022-12-18T08:10:00;-5.90;99.90
17529;DHT22;8882;53.192;8.184;2022-12-18T08:12:26;-5.90;99.90
17529;DHT22;8882;53.192;8.184;2022-12-18T08:14:51;-5.90;99.90
17529;DHT22;8882;53.192;8.184;2022-12-18T08:17:17;-5.80;99.90
17529;DHT22;8882;53.192;8.184;2022-12-18T08:19:42;-5.80;99.90
17529;DHT22;8882;53.192;8.184;2022-12-18T08:22:08;-5.80;99.90
17529;DHT22;8882;53.192;8.184;2022-12-18T08:24:33;-5.70;99.90
17529;DHT22;8882;53.192;8.184;2022-12-18T08:26:59;-5.70;99.90
17529;DHT22;8882;53.192;8.184;2022-12-18T08:29:24;-5.70;99.90
17529;DHT22;8882;53.192;8.184;2022-12-18T08:31:50;-5.70;99.90
17529;DHT22;8882;53.192;8.184;2022-12-18T08:34:15;-5.60;99.90
17529;DHT22;8882;53.192;8.184;2022-12-18T08:36:41;-5.60;99.90
17529;DHT22;8882;53.192;8.184;2022-12-18T08:39:06;-5.60;99.90
17529;DHT22;8882;53.192;8.184;2022-12-18T08:41:32;-5.60;99.90
17529;DHT22;8882;53.192;8.184;2022-12-18T08:43:57;-5.50;99.90
17529;DHT22;8882;53.192;8.184;2022-12-18T08:46:43;-5.50;99.90
17529;DHT22;8882;53.192;8.184;2022-12-18T08:49:10;-5.40;99.90
17529;DHT22;8882;53.192;8.184;2022-12-18T08:51:36;-5.40;99.90
17529;DHT22;8882;53.192;8.184;2022-12-18T08:54:02;-5.30;99.90
17529;DHT22;8882;53.192;8.184;2022-12-18T08:56:28;-5.30;99.90
17529;DHT22;8882;53.192;8.184;2022-12-18T08:58:56;-5.20;99.90
17529;DHT22;8882;53.192;8.184;2022-12-18T09:01:22;-5.20;99.90
17529;DHT22;8882;53.192;8.184;2022-12-18T09:03:49;-5.10;99.90
17529;DHT22;8882;53.192;8.184;2022-12-18T09:06:19;-5.10;99.90
17529;DHT22;8882;53.192;8.184;2022-12-18T09:08:46;-5.00;99.90
17529;DHT22;8882;53.192;8.184;2022-12-18T09:11:20;-4.90;99.90
17529;DHT22;8882;53.192;8.184;2022-12-18T09:13:46;-4.90;99.90
17529;DHT22;8882;53.192;8.184;2022-12-18T09:16:11;-4.70;99.90
17529;DHT22;8882;53.192;8.184;2022-12-18T09:18:37;-4.70;99.90
17529;DHT22;8882;53.192;8.184;2022-12-18T09:21:19;-4.60;99.90
17529;DHT22;8882;53.192;8.184;2022-12-18T09:23:50;-4.50;99.90
17529;DHT22;8882;53.192;8.184;2022-12-18T09:26:16;-4.50;99.90
17529;DHT22;8882;53.192;8.184;2022-12-18T09:28:42;-4.50;99.90
17529;DHT22;8882;53.192;8.184;2022-12-18T09:31:08;-4.40;99.90
17529;DHT22;8882;53.192;8.184;2022-12-18T09:33:35;-4.40;99.90
17529;DHT22;8882;53.192;8.184;2022-12-18T09:36:03;-4.40;99.90
17529;DHT22;8882;53.192;8.184;2022-12-18T09:38:29;-4.40;99.90
17529;DHT22;8882;53.192;8.184;2022-12-18T09:40:59;-4.30;99.90
17529;DHT22;8882;53.192;8.184;2022-12-18T09:43:42;-4.30;99.90
17529;DHT22;8882;53.192;8.184;2022-12-18T09:46:15;-4.30;99.90
17529;DHT22;8882;53.192;8.184;2022-12-18T09:48:45;-4.20;99.90
17529;DHT22;8882;53.192;8.184;2022-12-18T09:51:17;-4.20;99.90
17529;DHT22;8882;53.192;8.184;2022-12-18T09:53:47;-4.20;99.90
17529;DHT22;8882;53.192;8.184;2022-12-18T09:56:20;-4.10;99.90
17529;DHT22;8882;53.192;8.184;2022-12-18T09:59:14;-4.00;99.90
17529;DHT22;8882;53.192;8.184;2022-12-18T10:01:43;-4.00;99.90
17529;DHT22;8882;53.192;8.184;2022-12-18T10:04:09;-3.90;99.90
17529;DHT22;8882;53.192;8.184;2022-12-18T10:12:16;-3.60;99.90
17529;DHT22;8882;53.192;8.184;2022-12-18T10:14:51;-2.40;99.90
17529;DHT22;8882;53.192;8.184;2022-12-18T10:20:01;-2.60;99.90
17529;DHT22;8882;53.192;8.184;2022-12-18T10:23:21;-2.80;99.90
17529;DHT22;8882;53.192;8.184;2022-12-18T10:25:56;-3.00;99.90
17529;DHT22;8882;53.192;8.184;2022-12-18T10:28:25;-3.10;99.90
17529;DHT22;8882;53.192;8.184;2022-12-18T10:30:51;-3.10;99.90
17529;DHT22;8882;53.192;8.184;2022-12-18T10:33:20;-3.20;99.90
17529;DHT22;8882;53.192;8.184;2022-12-18T10:35:48;-3.30;99.90
17529;DHT22;8882;53.192;8.184;2022-12-18T10:43:20;-3.30;99.90
17529;DHT22;8882;53.192;8.184;2022-12-18T10:51:00;-3.30;99.90
17529;DHT22;8882;53.192;8.184;2022-12-18T10:53:28;-3.20;99.90
17529;DHT22;8882;53.192;8.184;2022-12-18T10:55:56;-3.20;99.90
17529;DHT22;8882;53.192;8.184;2022-12-18T10:58:31;-3.10;99.90
17529;DHT22;8882;53.192;8.184;2022-12-18T11:01:07;-3.10;99.90
17529;DHT22;8882;53.192;8.184;2022-12-18T11:03:36;-3.00;99.90
17529;DHT22;8882;53.192;8.184;2022-12-18T11:08:35;-2.90;99.90
17529;DHT22;8882;53.192;8.184;2022-12-18T11:11:02;-2.80;99.90
17529;DHT22;8882;53.192;8.184;2022-12-18T11:13:30;-2.70;99.90
17529;DHT22;8882;53.192;8.184;2022-12-18T11:15:56;-2.70;99.90
17529;DHT22;8882;53.192;8.184;2022-12-18T11:18:27;-2.60;99.90
17529;DHT22;8882;53.192;8.184;2022-12-18T11:20:56;-2.60;99.90
17529;DHT22;8882;53.192;8.184;2022-12-18T11:23:23;-2.50;99.90
17529;DHT22;8882;53.192;8.184;2022-12-18T11:26:01;-2.50;99.90
17529;DHT22;8882;53.192;8.184;2022-12-18T11:28:52;-2.40;99.90
17529;DHT22;8882;53.192;8.184;2022-12-18T11:31:28;-2.30;99.90
17529;DHT22;8882;53.192;8.184;2022-12-18T11:34:10;-2.10;99.90
17529;DHT22;8882;53.192;8.184;2022-12-18T11:36:42;-2.10;99.90
17529;DHT22;8882;53.192;8.184;2022-12-18T11:39:40;-2.00;99.90
17529;DHT22;8882;53.192;8.184;2022-12-18T11:42:19;-1.90;99.90
17529;DHT22;8882;53.192;8.184;2022-12-18T11:45:00;-1.90;99.90
17529;DHT22;8882;53.192;8.184;2022-12-18T11:47:52;-1.80;99.90
17529;DHT22;8882;53.192;8.184;2022-12-18T11:50:24;-1.80;99.90
17529;DHT22;8882;53.192;8.184;2022-12-18T11:52:50;-1.80;99.90
17529;DHT22;8882;53.192;8.184;2022-12-18T11:55:24;-1.80;99.90
17529;DHT22;8882;53.192;8.184;2022-12-18T12:00:53;-1.80;99.90
17529;DHT22;8882;53.192;8.184;2022-12-18T12:03:34;-1.80;99.90
17529;DHT22;8882;53.192;8.184;2022-12-18T12:06:10;-1.80;99.90
17529;DHT22;8882;53.192;8.184;2022-12-18T12:09:12;-1.80;99.90
17529;DHT22;8882;53.192;8.184;2022-12-18T12:12:12;-1.90;99.90
17529;DHT22;8882;53.192;8.184;2022-12-18T12:15:11;-1.90;99.90
17529;DHT22;8882;53.192;8.184;2022-12-18T12:17:49;-1.90;99.90
17529;DHT22;8882;53.192;8.184;2022-12-18T12:20:26;-1.90;99.90
17529;DHT22;8882;53.192;8.184;2022-12-18T12:23:19;-1.90;99.90
17529;DHT22;8882;53.192;8.184;2022-12-18T12:26:06;-1.90;99.90
17529;DHT22;8882;53.192;8.184;2022-12-18T12:29:00;-1.90;99.90
17529;DHT22;8882;53.192;8.184;2022-12-18T12:34:20;-2.00;99.90
17529;DHT22;8882;53.192;8.184;2022-12-18T12:37:18;-2.00;99.90
17529;DHT22;8882;53.192;8.184;2022-12-18T12:39:47;-2.00;99.90
17529;DHT22;8882;53.192;8.184;2022-12-18T12:42:20;-2.00;99.90
17529;DHT22;8882;53.192;8.184;2022-12-18T12:45:16;-2.00;99.90
17529;DHT22;8882;53.192;8.184;2022-12-18T12:47:44;-2.00;99.90
17529;DHT22;8882;53.192;8.184;2022-12-18T12:50:17;-2.00;99.90
17529;DHT22;8882;53.192;8.184;2022-12-18T12:52:47;-2.00;99.90
17529;DHT22;8882;53.192;8.184;2022-12-18T12:55:34;-2.00;99.90
17529;DHT22;8882;53.192;8.184;2022-12-18T12:58:07;-1.90;99.90
17529;DHT22;8882;53.192;8.184;2022-12-18T13:00:44;-1.90;99.90
17529;DHT22;8882;53.192;8.184;2022-12-18T13:06:19;-1.90;99.90
17529;DHT22;8882;53.192;8.184;2022-12-18T13:09:01;-1.90;99.90
17529;DHT22;8882;53.192;8.184;2022-12-18T13:14:32;-1.90;99.90
17529;DHT22;8882;53.192;8.184;2022-12-18T13:19:51;-1.90;99.90
17529;DHT22;8882;53.192;8.184;2022-12-18T13:22:24;-1.90;99.90
17529;DHT22;8882;53.192;8.184;2022-12-18T13:24:50;-1.90;99.90
17529;DHT22;8882;53.192;8.184;2022-12-18T13:36:47;-1.90;99.90
17529;DHT22;8882;53.192;8.184;2022-12-18T13:41:43;-1.90;99.90
17529;DHT22;8882;53.192;8.184;2022-12-18T13:44:30;-2.00;99.90
17529;DHT22;8882;53.192;8.184;2022-12-18T13:46:57;-2.00;99.90
17529;DHT22;8882;53.192;8.184;2022-12-18T13:51:56;-2.00;99.90
17529;DHT22;8882;53.192;8.184;2022-12-18T13:54:37;-2.00;99.90
17529;DHT22;8882;53.192;8.184;2022-12-18T13:57:12;-2.00;99.90
17529;DHT22;8882;53.192;8.184;2022-12-18T13:59:50;-2.00;99.90
17529;DHT22;8882;53.192;8.184;2022-12-18T14:02:20;-2.00;99.90
17529;DHT22;8882;53.192;8.184;2022-12-18T14:04:47;-2.00;99.90
17529;DHT22;8882;53.192;8.184;2022-12-18T14:07:23;-2.00;99.90
17529;DHT22;8882;53.192;8.184;2022-12-18T14:09:50;-2.10;99.90
17529;DHT22;8882;53.192;8.184;2022-12-18T14:12:36;-2.10;99.90
17529;DHT22;8882;53.192;8.184;2022-12-18T14:15:22;-2.10;99.90
17529;DHT22;8882;53.192;8.184;2022-12-18T14:20:25;-2.10;99.90
17529;DHT22;8882;53.192;8.184;2022-12-18T14:22:51;-2.00;99.90
17529;DHT22;8882;53.192;8.184;2022-12-18T14:25:20;-2.10;99.90
17529;DHT22;8882;53.192;8.184;2022-12-18T14:30:36;-2.10;99.90
17529;DHT22;8882;53.192;8.184;2022-12-18T14:33:04;-2.10;99.90
17529;DHT22;8882;53.192;8.184;2022-12-18T14:35:30;-2.10;99.90
17529;DHT22;8882;53.192;8.184;2022-12-18T14:38:10;-2.20;99.90
17529;DHT22;8882;53.192;8.184;2022-12-18T14:40:36;-2.10;99.90
17529;DHT22;8882;53.192;8.184;2022-12-18T14:43:02;-2.20;99.90
17529;DHT22;8882;53.192;8.184;2022-12-18T14:45:37;-2.20;99.90
17529;DHT22;8882;53.192;8.184;2022-12-18T14:48:17;-2.20;99.90
17529;DHT22;8882;53.192;8.184;2022-12-18T14:50:45;-2.20;99.90
17529;DHT22;8882;53.192;8.184;2022-12-18T14:53:21;-2.20;99.90
17529;DHT22;8882;53.192;8.184;2022-12-18T14:55:48;-2.20;99.90
17529;DHT22;8882;53.192;8.184;2022-12-18T14:58:15;-2.20;99.90
17529;DHT22;8882;53.192;8.184;2022-12-18T15:00:43;-2.20;99.90
17529;DHT22;8882;53.192;8.184;2022-12-18T15:03:09;-2.20;99.90
17529;DHT22;8882;53.192;8.184;2022-12-18T15:05:35;-2.20;99.90
17529;DHT22;8882;53.192;8.184;2022-12-18T15:08:01;-2.20;99.90
17529;DHT22;8882;53.192;8.184;2022-12-18T15:10:29;-2.20;99.90
17529;DHT22;8882;53.192;8.184;2022-12-18T15:18:00;-2.20;99.90
17529;DHT22;8882;53.192;8.184;2022-12-18T15:20:26;-2.20;99.90
17529;DHT22;8882;53.192;8.184;2022-12-18T15:22:52;-2.20;99.90
17529;DHT22;8882;53.192;8.184;2022-12-18T15:25:37;-0.70;99.90
17529;DHT22;8882;53.192;8.184;2022-12-18T15:28:04;-0.60;99.90
17529;DHT22;8882;53.192;8.184;2022-12-18T15:30:58;-1.00;99.90
17529;DHT22;8882;53.192;8.184;2022-12-18T15:33:27;-1.30;99.90
17529;DHT22;8882;53.192;8.184;2022-12-18T15:36:03;-1.50;99.90
17529;DHT22;8882;53.192;8.184;2022-12-18T15:38:30;-1.70;99.90
17529;DHT22;8882;53.192;8.184;2022-12-18T15:40:56;-1.70;99.90
17529;DHT22;8882;53.192;8.184;2022-12-18T15:43:23;-1.80;99.90
17529;DHT22;8882;53.192;8.184;2022-12-18T15:48:27;-1.90;99.90
17529;DHT22;8882;53.192;8.184;2022-12-18T15:50:54;-1.90;99.90
17529;DHT22;8882;53.192;8.184;2022-12-18T15:53:22;-1.90;99.90
17529;DHT22;8882;53.192;8.184;2022-12-18T15:55:48;-1.90;99.90
17529;DHT22;8882;53.192;8.184;2022-12-18T15:58:33;-1.90;99.90
17529;DHT22;8882;53.192;8.184;2022-12-18T16:00:59;-1.90;99.90
17529;DHT22;8882;53.192;8.184;2022-12-18T16:03:25;-1.90;99.90
17529;DHT22;8882;53.192;8.184;2022-12-18T16:05:51;-1.90;99.90
17529;DHT22;8882;53.192;8.184;2022-12-18T16:08:16;-1.90;99.90
17529;DHT22;8882;53.192;8.184;2022-12-18T16:10:42;-1.90;99.90
17529;DHT22;8882;53.192;8.184;2022-12-18T16:13:11;-1.80;99.90
17529;DHT22;8882;53.192;8.184;2022-12-18T16:15:37;-1.80;99.90
17529;DHT22;8882;53.192;8.184;2022-12-18T16:18:03;-1.80;99.90
17529;DHT22;8882;53.192;8.184;2022-12-18T16:20:28;-1.80;99.90
17529;DHT22;8882;53.192;8.184;2022-12-18T16:22:54;-1.80;99.90
17529;DHT22;8882;53.192;8.184;2022-12-18T16:25:21;-1.80;99.90
17529;DHT22;8882;53.192;8.184;2022-12-18T16:27:48;-1.80;99.90
17529;DHT22;8882;53.192;8.184;2022-12-18T16:30:19;-1.80;99.90
17529;DHT22;8882;53.192;8.184;2022-12-18T16:32:45;-1.80;99.90
17529;DHT22;8882;53.192;8.184;2022-12-18T16:35:13;-1.70;99.90
17529;DHT22;8882;53.192;8.184;2022-12-18T16:37:39;-1.70;99.90
17529;DHT22;8882;53.192;8.184;2022-12-18T16:40:10;-1.70;99.90
17529;DHT22;8882;53.192;8.184;2022-12-18T16:42:37;-1.70;99.90
17529;DHT22;8882;53.192;8.184;2022-12-18T16:45:04;-1.70;99.90
17529;DHT22;8882;53.192;8.184;2022-12-18T16:47:29;-1.70;99.90
17529;DHT22;8882;53.192;8.184;2022-12-18T16:49:55;-1.70;99.90
17529;DHT22;8882;53.192;8.184;2022-12-18T16:52:21;-1.80;99.90
17529;DHT22;8882;53.192;8.184;2022-12-18T16:54:46;-1.80;99.90
17529;DHT22;8882;53.192;8.184;2022-12-18T16:57:14;-1.70;99.90
17529;DHT22;8882;53.192;8.184;2022-12-18T16:59:40;-1.70;99.90
17529;DHT22;8882;53.192;8.184;2022-12-18T17:02:08;-1.70;99.90
17529;DHT22;8882;53.192;8.184;2022-12-18T17:04:37;-1.70;99.90
17529;DHT22;8882;53.192;8.184;2022-12-18T17:07:02;-1.70;99.90
17529;DHT22;8882;53.192;8.184;2022-12-18T17:09:29;-1.70;99.90
17529;DHT22;8882;53.192;8.184;2022-12-18T17:11:55;-1.70;99.90
17529;DHT22;8882;53.192;8.184;2022-12-18T17:14:22;-1.70;99.90
17529;DHT22;8882;53.192;8.184;2022-12-18T17:16:48;-1.70;99.90
17529;DHT22;8882;53.192;8.184;2022-12-18T17:19:14;-1.70;99.90
17529;DHT22;8882;53.192;8.184;2022-12-18T17:21:41;-1.70;99.90
17529;DHT22;8882;53.192;8.184;2022-12-18T17:24:07;-1.70;99.90
17529;DHT22;8882;53.192;8.184;2022-12-18T17:26:33;-1.70;99.90
17529;DHT22;8882;53.192;8.184;2022-12-18T17:28:59;-1.70;99.90
17529;DHT22;8882;53.192;8.184;2022-12-18T17:31:27;-1.70;99.90
17529;DHT22;8882;53.192;8.184;2022-12-18T17:33:52;-1.60;99.90
17529;DHT22;8882;53.192;8.184;2022-12-18T17:36:18;-1.60;99.90
17529;DHT22;8882;53.192;8.184;2022-12-18T17:38:50;-1.60;99.90
17529;DHT22;8882;53.192;8.184;2022-12-18T17:41:16;-1.60;99.90
17529;DHT22;8882;53.192;8.184;2022-12-18T17:43:42;-1.60;99.90
17529;DHT22;8882;53.192;8.184;2022-12-18T17:46:11;-1.60;99.90
17529;DHT22;8882;53.192;8.184;2022-12-18T17:48:37;-1.60;99.90
17529;DHT22;8882;53.192;8.184;2022-12-18T17:51:05;-1.60;99.90
17529;DHT22;8882;53.192;8.184;2022-12-18T17:53:31;-1.60;99.90
17529;DHT22;8882;53.192;8.184;2022-12-18T17:55:58;-1.60;99.90
17529;DHT22;8882;53.192;8.184;2022-12-18T17:58:26;-1.60;99.90
17529;DHT22;8882;53.192;8.184;2022-12-18T18:00:51;-1.60;99.90
17529;DHT22;8882;53.192;8.184;2022-12-18T18:03:17;-1.50;99.90
17529;DHT22;8882;53.192;8.184;2022-12-18T18:05:42;-1.50;99.90
17529;DHT22;8882;53.192;8.184;2022-12-18T18:08:08;-1.50;99.90
17529;DHT22;8882;53.192;8.184;2022-12-18T18:10:37;-1.50;99.90
17529;DHT22;8882;53.192;8.184;2022-12-18T18:13:04;-1.50;99.90
17529;DHT22;8882;53.192;8.184;2022-12-18T18:15:58;-1.50;99.90
17529;DHT22;8882;53.192;8.184;2022-12-18T18:18:23;-1.50;99.90
17529;DHT22;8882;53.192;8.184;2022-12-18T18:20:49;-1.50;99.90
17529;DHT22;8882;53.192;8.184;2022-12-18T18:23:15;-1.50;99.90
17529;DHT22;8882;53.192;8.184;2022-12-18T18:25:40;-1.50;99.90
17529;DHT22;8882;53.192;8.184;2022-12-18T18:28:06;-1.50;99.90
17529;DHT22;8882;53.192;8.184;2022-12-18T18:30:32;-1.50;99.90
17529;DHT22;8882;53.192;8.184;2022-12-18T18:32:57;-1.50;99.90
17529;DHT22;8882;53.192;8.184;2022-12-18T18:35:23;-1.50;99.90
17529;DHT22;8882;53.192;8.184;2022-12-18T18:37:50;-1.50;99.90
17529;DHT22;8882;53.192;8.184;2022-12-18T18:40:16;-1.50;99.90
17529;DHT22;8882;53.192;8.184;2022-12-18T18:42:42;-1.50;99.90
17529;DHT22;8882;53.192;8.184;2022-12-18T18:45:08;-1.50;99.90
17529;DHT22;8882;53.192;8.184;2022-12-18T18:47:33;-1.50;99.90
17529;DHT22;8882;53.192;8.184;2022-12-18T18:49:59;-1.50;99.90
17529;DHT22;8882;53.192;8.184;2022-12-18T18:52:24;-1.50;99.90
17529;DHT22;8882;53.192;8.184;2022-12-18T18:54:50;-1.40;99.90
17529;DHT22;8882;53.192;8.184;2022-12-18T18:57:15;-1.40;99.90
17529;DHT22;8882;53.192;8.184;2022-12-18T18:59:41;-1.40;99.90
17529;DHT22;8882;53.192;8.184;2022-12-18T19:02:11;-1.30;99.90
17529;DHT22;8882;53.192;8.184;2022-12-18T19:04:38;-1.30;99.90
17529;DHT22;8882;53.192;8.184;2022-12-18T19:07:05;-1.30;99.90
17529;DHT22;8882;53.192;8.184;2022-12-18T19:09:30;-1.30;99.90
17529;DHT22;8882;53.192;8.184;2022-12-18T19:11:56;-1.40;99.90
17529;DHT22;8882;53.192;8.184;2022-12-18T19:14:42;-1.30;99.90
17529;DHT22;8882;53.192;8.184;2022-12-18T19:17:07;-1.20;99.90
17529;DHT22;8882;53.192;8.184;2022-12-18T19:19:33;-1.20;99.90
17529;DHT22;8882;53.192;8.184;2022-12-18T19:21:59;-1.20;99.90
17529;DHT22;8882;53.192;8.184;2022-12-18T19:24:24;-1.20;99.90
17529;DHT22;8882;53.192;8.184;2022-12-18T19:26:50;-1.10;99.90
17529;DHT22;8882;53.192;8.184;2022-12-18T19:29:16;-1.10;99.90
17529;DHT22;8882;53.192;8.184;2022-12-18T19:31:42;-1.00;99.90
17529;DHT22;8882;53.192;8.184;2022-12-18T19:34:08;-1.00;99.90
17529;DHT22;8882;53.192;8.184;2022-12-18T19:36:35;-1.00;99.90
17529;DHT22;8882;53.192;8.184;2022-12-18T19:39:06;-1.00;99.90
17529;DHT22;8882;53.192;8.184;2022-12-18T19:41:32;-1.00;99.90
17529;DHT22;8882;53.192;8.184;2022-12-18T19:43:57;-0.90;99.90
17529;DHT22;8882;53.192;8.184;2022-12-18T19:46:23;-1.00;99.90
17529;DHT22;8882;53.192;8.184;2022-12-18T19:48:49;-0.90;99.90
17529;DHT22;8882;53.192;8.184;2022-12-18T19:51:18;-0.90;99.90
17529;DHT22;8882;53.192;8.184;2022-12-18T19:53:44;-0.90;99.90
17529;DHT22;8882;53.192;8.184;2022-12-18T19:56:12;-0.90;99.90
17529;DHT22;8882;53.192;8.184;2022-12-18T19:58:39;-0.90;99.90
17529;DHT22;8882;53.192;8.184;2022-12-18T20:01:05;-0.90;99.90
17529;DHT22;8882;53.192;8.184;2022-12-18T20:03:31;-0.90;99.90
17529;DHT22;8882;53.192;8.184;2022-12-18T20:06:18;-0.90;99.90
17529;DHT22;8882;53.192;8.184;2022-12-18T20:08:44;-0.90;99.90
17529;DHT22;8882;53.192;8.184;2022-12-18T20:11:10;-0.90;99.90
17529;DHT22;8882;53.192;8.184;2022-12-18T20:13:36;-0.90;99.90
17529;DHT22;8882;53.192;8.184;2022-12-18T20:16:02;-0.80;99.90
17529;DHT22;8882;53.192;8.184;2022-12-18T20:18:27;-0.80;99.90
17529;DHT22;8882;53.192;8.184;2022-12-18T20:20:53;-0.80;99.90
17529;DHT22;8882;53.192;8.184;2022-12-18T20:23:19;-0.80;99.90
17529;DHT22;8882;53.192;8.184;2022-12-18T20:25:46;-0.70;99.90
17529;DHT22;8882;53.192;8.184;2022-12-18T20:28:11;-0.70;99.90
17529;DHT22;8882;53.192;8.184;2022-12-18T20:30:37;-0.70;99.90
17529;DHT22;8882;53.192;8.184;2022-12-18T20:33:02;-0.70;99.90
17529;DHT22;8882;53.192;8.184;2022-12-18T20:35:28;-0.70;99.90
17529;DHT22;8882;53.192;8.184;2022-12-18T20:37:55;-0.70;99.90
17529;DHT22;8882;53.192;8.184;2022-12-18T20:40:21;-0.70;99.90
17529;DHT22;8882;53.192;8.184;2022-12-18T20:42:47;-0.70;99.90
17529;DHT22;8882;53.192;8.184;2022-12-18T20:45:12;-0.70;99.90
17529;DHT22;8882;53.192;8.184;2022-12-18T20:47:38;-0.70;99.90
17529;DHT22;8882;53.192;8.184;2022-12-18T20:50:04;-0.60;99.90
17529;DHT22;8882;53.192;8.184;2022-12-18T20:52:30;-0.60;99.90
17529;DHT22;8882;53.192;8.184;2022-12-18T20:54:56;-0.70;99.90
17529;DHT22;8882;53.192;8.184;2022-12-18T20:57:21;-0.60;99.90
17529;DHT22;8882;53.192;8.184;2022-12-18T20:59:47;-0.70;99.90
17529;DHT22;8882;53.192;8.184;2022-12-18T21:02:12;-0.60;99.90
17529;DHT22;8882;53.192;8.184;2022-12-18T21:04:38;-0.70;99.90
17529;DHT22;8882;53.192;8.184;2022-12-18T21:07:03;-0.60;99.90
17529;DHT22;8882;53.192;8.184;2022-12-18T21:09:30;-0.70;99.90
17529;DHT22;8882;53.192;8.184;2022-12-18T21:11:56;-0.70;99.90
17529;DHT22;8882;53.192;8.184;2022-12-18T21:14:41;-0.70;99.90
17529;DHT22;8882;53.192;8.184;2022-12-18T21:17:06;-0.60;99.90
17529;DHT22;8882;53.192;8.184;2022-12-18T21:19:32;-0.60;99.90
17529;DHT22;8882;53.192;8.184;2022-12-18T21:21:57;-0.60;99.90
17529;DHT22;8882;53.192;8.184;2022-12-18T21:24:23;-0.60;99.90
17529;DHT22;8882;53.192;8.184;2022-12-18T21:26:49;-0.60;99.90
17529;DHT22;8882;53.192;8.184;2022-12-18T21:29:23;-0.50;99.90
17529;DHT22;8882;53.192;8.184;2022-12-18T21:31:52;0.50;99.90
17529;DHT22;8882;53.192;8.184;2022-12-18T21:34:21;1.00;99.90
17529;DHT22;8882;53.192;8.184;2022-12-18T21:36:47;1.30;99.90
17529;DHT22;8882;53.192;8.184;2022-12-18T21:39:14;1.00;99.90
17529;DHT22;8882;53.192;8.184;2022-12-18T21:41:40;1.50;99.90
17529;DHT22;8882;53.192;8.184;2022-12-18T21:44:25;1.40;99.90
17529;DHT22;8882;53.192;8.184;2022-12-18T21:46:50;1.00;99.90
17529;DHT22;8882;53.192;8.184;2022-12-18T21:49:17;0.70;99.90
17529;DHT22;8882;53.192;8.184;2022-12-18T21:51:46;0.30;99.90
17529;DHT22;8882;53.192;8.184;2022-12-18T21:54:11;0.10;99.90
17529;DHT22;8882;53.192;8.184;2022-12-18T21:56:54;0.00;99.90
